createdAt,value
2018-05-16T00:01:34.094Z,8.47
2018-05-16T00:04:09.298Z,8.67
2018-05-16T00:06:44.300Z,8.60
2018-05-16T00:09:19.874Z,8.43
2018-05-16T00:11:54.881Z,8.70
2018-05-16T00:14:30.086Z,9.20
2018-05-16T00:17:05.468Z,13.33
2018-05-16T00:19:40.630Z,8.47
2018-05-16T00:22:15.962Z,8.55
2018-05-16T00:24:50.735Z,9.27
2018-05-16T00:27:26.139Z,7.75
2018-05-16T00:30:01.058Z,8.97
2018-05-16T00:32:36.106Z,9.40
2018-05-16T00:35:12.354Z,8.70
2018-05-16T00:37:47.847Z,9.00
2018-05-16T00:40:23.236Z,10.43
2018-05-16T00:42:58.838Z,8.82
2018-05-16T00:45:34.186Z,10.63
2018-05-16T00:48:09.331Z,8.40
2018-05-16T00:53:40.767Z,8.47
2018-05-16T00:56:16.150Z,9.20
2018-05-16T00:58:50.946Z,10.03
2018-05-16T01:01:25.440Z,9.50
2018-05-16T01:04:00.434Z,9.23
2018-05-16T01:06:35.617Z,9.70
2018-05-16T01:09:10.715Z,9.93
2018-05-16T01:11:45.522Z,9.30
2018-05-16T01:14:20.479Z,8.70
2018-05-16T01:16:55.011Z,8.87
2018-05-16T01:19:29.690Z,9.80
2018-05-16T01:22:04.298Z,8.80
2018-05-16T01:24:39.779Z,9.23
2018-05-16T01:27:15.189Z,9.35
2018-05-16T01:29:50.150Z,10.13
2018-05-16T01:32:25.510Z,10.27
2018-05-16T01:35:00.094Z,10.73
2018-05-16T01:37:34.993Z,10.53
2018-05-16T01:40:10.326Z,10.93
2018-05-16T01:42:45.604Z,13.07
2018-05-16T01:45:20.836Z,9.60
2018-05-16T01:47:56.185Z,10.63
2018-05-16T01:50:31.182Z,10.23
2018-05-16T01:53:06.062Z,11.00
2018-05-16T01:55:41.122Z,9.80
2018-05-16T01:58:16.503Z,10.33
2018-05-16T02:00:52.121Z,11.38
2018-05-16T02:03:27.071Z,11.43
2018-05-16T02:06:02.269Z,10.73
2018-05-16T02:08:37.226Z,10.27
2018-05-16T02:11:12.446Z,10.47
2018-05-16T02:13:47.831Z,11.10
2018-05-16T02:16:23.179Z,13.27
2018-05-16T02:18:57.902Z,11.77
2018-05-16T02:21:33.311Z,10.70
2018-05-16T02:24:09.418Z,12.24
2018-05-16T02:26:44.678Z,12.53
2018-05-16T02:29:20.755Z,13.02
2018-05-16T02:31:55.715Z,11.57
2018-05-16T02:34:31.194Z,13.60
2018-05-16T02:37:06.130Z,14.47
2018-05-16T02:39:41.308Z,13.90
2018-05-16T02:42:17.435Z,13.55
2018-05-16T02:44:51.838Z,12.17
2018-05-16T02:47:26.519Z,13.33
2018-05-16T02:50:01.757Z,11.67
2018-05-16T02:52:37.339Z,12.17
2018-05-16T02:55:11.747Z,12.43
2018-05-16T02:57:46.318Z,13.80
2018-05-16T03:00:22.026Z,13.73
2018-05-16T03:02:57.374Z,13.67
2018-05-16T03:05:32.487Z,14.87
2018-05-16T03:08:07.643Z,21.93
2018-05-16T03:10:42.316Z,13.97
2018-05-16T03:13:16.851Z,14.67
2018-05-16T03:15:51.275Z,14.87
2018-05-16T03:18:26.503Z,13.90
2018-05-16T03:21:01.366Z,13.10
2018-05-16T03:23:36.466Z,14.43
2018-05-16T03:26:11.235Z,13.10
2018-05-16T03:28:46.497Z,13.67
2018-05-16T03:31:21.854Z,14.83
2018-05-16T03:33:56.565Z,14.37
2018-05-16T03:36:31.626Z,15.03
2018-05-16T03:39:06.073Z,14.80
2018-05-16T03:41:41.398Z,15.20
2018-05-16T03:44:16.654Z,14.00
2018-05-16T03:46:51.422Z,16.70
2018-05-16T03:49:26.813Z,16.33
2018-05-16T03:52:01.440Z,16.07
2018-05-16T03:54:36.714Z,14.20
2018-05-16T04:10:40.262Z,14.57
2018-05-16T04:13:15.694Z,15.75
2018-05-16T04:15:50.557Z,16.63
2018-05-16T04:18:25.634Z,15.63
2018-05-16T04:21:00.770Z,19.80
2018-05-16T04:23:35.917Z,18.40
2018-05-16T04:26:10.770Z,18.63
2018-05-16T04:28:45.936Z,19.13
2018-05-16T04:31:20.902Z,19.57
2018-05-16T04:33:55.582Z,22.23
2018-05-16T04:36:30.482Z,21.97
2018-05-16T04:39:04.902Z,22.37
2018-05-16T04:41:40.474Z,19.97
2018-05-16T04:44:15.718Z,20.50
2018-05-16T04:46:50.462Z,22.00
2018-05-16T04:49:25.767Z,21.20
2018-05-16T04:52:00.606Z,23.50
2018-05-16T04:54:35.619Z,20.60
2018-05-16T04:57:10.793Z,21.20
2018-05-16T04:59:46.514Z,21.60
2018-05-16T05:02:21.651Z,21.90
2018-05-16T05:04:56.506Z,21.73
2018-05-16T05:07:31.398Z,21.30
2018-05-16T05:10:06.128Z,23.83
2018-05-16T05:12:41.554Z,23.40
2018-05-16T05:15:16.828Z,24.70
2018-05-16T05:17:51.542Z,21.70
2018-05-16T05:20:26.498Z,22.67
2018-05-16T05:23:01.530Z,22.20
2018-05-16T05:25:36.553Z,22.57
2018-05-16T05:28:11.817Z,21.67
2018-05-16T05:30:46.675Z,21.60
2018-05-16T05:33:21.894Z,21.50
2018-05-16T05:35:56.530Z,22.73
2018-05-16T05:38:31.558Z,22.57
2018-05-16T05:41:06.887Z,21.90
2018-05-16T05:43:41.834Z,22.57
2018-05-16T05:46:17.154Z,23.37
2018-05-16T05:48:52.507Z,21.97
2018-05-16T05:51:27.830Z,20.58
2018-05-16T05:54:02.698Z,28.63
2018-05-16T05:56:38.062Z,22.50
2018-05-16T05:59:12.890Z,23.47
2018-05-16T06:01:47.833Z,23.13
2018-05-16T06:04:22.826Z,23.33
2018-05-16T06:06:57.798Z,23.27
2018-05-16T06:09:32.763Z,22.80
2018-05-16T06:12:07.731Z,23.23
2018-05-16T06:14:42.651Z,23.27
2018-05-16T06:17:17.782Z,26.42
2018-05-16T06:19:52.709Z,24.07
2018-05-16T06:22:27.738Z,23.17
2018-05-16T06:25:02.919Z,22.77
2018-05-16T06:27:37.946Z,22.60
2018-05-16T06:30:13.093Z,22.63
2018-05-16T06:32:47.945Z,23.30
2018-05-16T06:35:23.163Z,23.57
2018-05-16T06:37:58.290Z,23.50
2018-05-16T06:40:33.661Z,21.70
2018-05-16T06:43:09.742Z,21.70
2018-05-16T06:45:44.240Z,21.00
2018-05-16T06:48:19.295Z,23.00
2018-05-16T06:50:54.150Z,22.23
2018-05-16T06:53:28.950Z,23.17
2018-05-16T06:56:03.802Z,19.50
2018-05-16T06:58:38.798Z,18.40
2018-05-16T07:01:14.011Z,16.10
2018-05-16T07:03:48.848Z,19.67
2018-05-16T07:06:23.813Z,22.23
2018-05-16T07:08:58.837Z,18.93
2018-05-16T07:11:33.642Z,21.60
2018-05-16T07:14:10.190Z,20.02
2018-05-16T07:16:44.822Z,19.83
2018-05-16T07:19:20.021Z,17.80
2018-05-16T07:21:54.927Z,21.43
2018-05-16T07:24:29.887Z,17.20
2018-05-16T07:27:05.009Z,18.00
2018-05-16T07:29:39.937Z,15.50
2018-05-16T07:32:15.110Z,16.93
2018-05-16T07:34:50.110Z,17.33
2018-05-16T07:37:26.070Z,17.10
2018-05-16T07:40:01.018Z,16.27
2018-05-16T07:42:36.223Z,16.60
2018-05-16T07:45:11.174Z,15.23
2018-05-16T07:47:46.246Z,16.07
2018-05-16T07:50:21.383Z,15.83
2018-05-16T07:52:56.064Z,15.53
2018-05-16T07:55:30.933Z,15.93
2018-05-16T07:58:05.994Z,14.70
2018-05-16T08:00:40.611Z,12.37
2018-05-16T08:03:15.401Z,14.30
2018-05-16T08:05:50.735Z,13.60
2018-05-16T08:08:26.287Z,12.73
2018-05-16T08:11:01.214Z,14.97
2018-05-16T08:13:35.950Z,12.90
2018-05-16T08:16:11.362Z,13.50
2018-05-16T08:18:45.983Z,16.13
2018-05-16T08:21:21.034Z,14.30
2018-05-16T08:23:55.926Z,12.77
2018-05-16T08:26:30.906Z,13.87
2018-05-16T08:29:05.843Z,15.30
2018-05-16T08:31:41.276Z,14.50
2018-05-16T08:34:16.258Z,13.90
2018-05-16T08:36:51.074Z,14.37
2018-05-16T08:39:26.211Z,13.27
2018-05-16T08:42:01.142Z,12.80
2018-05-16T08:44:35.998Z,13.17
2018-05-16T08:47:11.215Z,11.40
2018-05-16T08:49:46.007Z,11.70
2018-05-16T08:52:21.242Z,12.77
2018-05-16T08:54:56.107Z,11.80
2018-05-16T08:57:31.235Z,10.53
2018-05-16T09:00:06.227Z,12.80
2018-05-16T09:02:41.218Z,10.77
2018-05-16T09:05:16.239Z,12.10
2018-05-16T09:07:51.059Z,12.20
2018-05-16T09:10:26.315Z,11.65
2018-05-16T09:13:01.190Z,13.07
2018-05-16T09:15:36.765Z,11.30
2018-05-16T09:18:11.446Z,10.77
2018-05-16T09:20:46.261Z,10.30
2018-05-16T09:23:21.506Z,10.13
2018-05-16T09:25:57.074Z,10.63
2018-05-16T09:28:32.108Z,11.57
2018-05-16T09:31:07.238Z,11.83
2018-05-16T09:33:42.158Z,9.73
2018-05-16T09:36:17.228Z,10.90
2018-05-16T09:38:52.216Z,9.33
2018-05-16T09:41:27.447Z,9.30
2018-05-16T09:44:02.082Z,9.90
2018-05-16T09:46:37.089Z,9.93
2018-05-16T09:49:12.358Z,10.07
2018-05-16T09:51:47.313Z,10.97
2018-05-16T09:54:22.738Z,11.77
2018-05-16T09:56:57.486Z,10.00
2018-05-16T09:59:32.410Z,10.30
2018-05-16T10:02:07.609Z,11.10
2018-05-16T10:04:42.213Z,10.53
2018-05-16T10:07:17.386Z,8.90
2018-05-16T10:09:51.903Z,9.40
2018-05-16T10:12:26.733Z,9.33
2018-05-16T10:15:01.753Z,9.30
2018-05-16T10:17:36.658Z,9.77
2018-05-16T10:20:11.822Z,9.07
2018-05-16T10:22:46.617Z,8.83
2018-05-16T10:25:21.759Z,8.87
2018-05-16T10:27:56.746Z,10.07
2018-05-16T10:30:31.638Z,11.10
2018-05-16T10:33:06.757Z,10.50
2018-05-16T10:35:41.554Z,8.67
2018-05-16T10:38:16.518Z,10.83
2018-05-16T10:40:51.342Z,9.10
2018-05-16T10:43:26.427Z,9.60
2018-05-16T10:46:00.983Z,9.43
2018-05-16T10:48:35.839Z,9.30
2018-05-16T10:51:10.729Z,8.10
2018-05-16T10:53:45.614Z,8.40
2018-05-16T10:56:20.658Z,7.27
2018-05-16T10:58:55.570Z,8.47
2018-05-16T11:01:30.693Z,7.67
2018-05-16T11:04:05.657Z,7.80
2018-05-16T11:06:40.761Z,7.10
2018-05-16T11:09:15.494Z,11.47
2018-05-16T11:11:50.766Z,7.90
2018-05-16T11:14:25.789Z,10.90
2018-05-16T11:17:00.422Z,7.73
2018-05-16T11:19:35.390Z,7.43
2018-05-16T11:22:10.638Z,7.47
2018-05-16T11:24:46.294Z,9.10
2018-05-16T11:27:20.849Z,8.47
2018-05-16T11:29:56.350Z,8.40
2018-05-16T11:32:31.234Z,8.73
2018-05-16T11:35:06.365Z,10.00
2018-05-16T11:37:40.794Z,10.00
2018-05-16T11:40:15.650Z,9.60
2018-05-16T11:42:50.604Z,9.50
2018-05-16T11:45:25.606Z,10.10
2018-05-16T11:48:00.358Z,10.60
2018-05-16T11:50:35.365Z,11.53
2018-05-16T11:53:10.734Z,10.10
2018-05-16T11:55:46.062Z,9.97
2018-05-16T11:58:21.556Z,11.00
2018-05-16T12:00:56.455Z,10.43
2018-05-16T12:03:31.498Z,11.70
2018-05-16T12:06:06.187Z,12.57
2018-05-16T12:08:41.395Z,11.97
2018-05-16T12:11:16.687Z,11.85
2018-05-16T12:13:51.546Z,13.70
2018-05-16T12:16:26.802Z,15.50
2018-05-16T12:19:01.587Z,13.90
2018-05-16T12:21:36.938Z,13.83
2018-05-16T12:24:11.878Z,13.53
2018-05-16T12:26:46.898Z,12.60
2018-05-16T12:29:21.848Z,16.30
2018-05-16T12:31:56.666Z,14.30
2018-05-16T12:34:31.584Z,15.20
2018-05-16T12:37:06.692Z,15.20
2018-05-16T12:39:41.576Z,16.97
2018-05-16T12:42:17.128Z,15.47
2018-05-16T12:44:52.574Z,14.67
2018-05-16T12:47:27.758Z,20.40
2018-05-16T12:50:02.315Z,18.37
2018-05-16T12:52:36.969Z,18.40
2018-05-16T12:55:12.023Z,15.90
2018-05-16T12:57:46.725Z,17.43
2018-05-16T13:00:21.970Z,17.00
2018-05-16T13:02:57.277Z,17.20
2018-05-16T13:05:32.510Z,18.30
2018-05-16T13:08:07.000Z,18.57
2018-05-16T13:10:41.798Z,18.23
2018-05-16T13:13:16.954Z,20.20
2018-05-16T13:15:52.105Z,16.63
2018-05-16T13:18:27.030Z,17.67
2018-05-16T13:21:01.734Z,16.30
2018-05-16T13:23:36.794Z,15.97
2018-05-16T13:26:12.038Z,15.00
2018-05-16T13:28:47.034Z,16.73
2018-05-16T13:31:22.127Z,16.10
2018-05-16T13:33:57.114Z,15.77
2018-05-16T13:36:32.178Z,14.20
2018-05-16T13:39:07.666Z,15.20
2018-05-16T13:41:42.941Z,16.10
2018-05-16T13:44:18.167Z,12.87
2018-05-16T13:46:52.806Z,13.30
2018-05-16T13:49:28.166Z,15.20
2018-05-16T13:52:03.229Z,14.20
2018-05-16T13:54:38.009Z,14.43
2018-05-16T13:57:12.954Z,17.30
2018-05-16T13:59:47.942Z,18.60
2018-05-16T14:02:22.842Z,19.00
2018-05-16T14:04:57.923Z,18.60
2018-05-16T14:07:32.785Z,14.60
2018-05-16T14:10:07.789Z,17.83
2018-05-16T14:12:42.994Z,13.60
2018-05-16T14:15:18.252Z,11.90
2018-05-16T14:17:53.245Z,9.60
2018-05-16T14:20:28.161Z,12.73
2018-05-16T14:23:03.198Z,18.03
2018-05-16T14:25:38.147Z,11.93
2018-05-16T14:28:13.178Z,12.40
2018-05-16T14:30:48.263Z,12.97
2018-05-16T14:33:23.339Z,13.50
2018-05-16T14:35:58.651Z,13.60
2018-05-16T14:38:33.762Z,14.30
2018-05-16T14:41:08.616Z,14.30
2018-05-16T14:43:43.795Z,14.00
2018-05-16T14:46:18.913Z,14.37
2018-05-16T14:48:57.623Z,14.77
2018-05-16T14:51:33.781Z,14.33
2018-05-16T14:54:08.914Z,13.23
2018-05-16T14:56:43.909Z,15.03
2018-05-16T14:59:19.150Z,17.73
2018-05-16T15:01:54.070Z,15.07
2018-05-16T15:04:29.203Z,18.03
2018-05-16T15:07:04.335Z,16.73
2018-05-16T15:09:39.218Z,18.30
2018-05-16T15:12:15.090Z,18.17
2018-05-16T15:14:50.469Z,22.73
2018-05-16T15:17:25.395Z,19.00
2018-05-16T15:20:00.838Z,19.47
2018-05-16T15:22:35.938Z,18.63
2018-05-16T15:25:11.266Z,27.17
2018-05-16T15:27:46.863Z,19.70
2018-05-16T15:30:22.217Z,18.90
2018-05-16T15:32:57.156Z,18.60
2018-05-16T15:35:32.122Z,18.60
2018-05-16T15:38:06.986Z,18.17
2018-05-16T15:40:41.879Z,15.43
2018-05-16T15:43:17.192Z,19.27
2018-05-16T15:45:52.895Z,15.07
2018-05-16T15:48:28.203Z,16.77
2018-05-16T15:51:03.934Z,18.80
2018-05-16T15:53:38.570Z,17.00
2018-05-16T15:56:13.514Z,19.87
2018-05-16T15:58:48.970Z,18.35
2018-05-16T16:01:24.312Z,14.05
2018-05-16T16:03:58.978Z,14.83
2018-05-16T16:06:34.024Z,13.67
2018-05-16T16:09:09.452Z,14.00
2018-05-16T16:11:44.442Z,16.90
2018-05-16T16:14:19.163Z,12.87
2018-05-16T16:16:54.619Z,14.93
2018-05-16T16:19:29.990Z,14.87
2018-05-16T16:22:05.159Z,13.90
2018-05-16T16:24:39.697Z,15.37
2018-05-16T16:27:14.490Z,12.23
2018-05-16T16:29:49.295Z,11.60
2018-05-16T16:32:24.451Z,12.77
2018-05-16T16:34:59.550Z,14.63
2018-05-16T16:37:34.697Z,13.00
2018-05-16T16:40:09.711Z,13.07
2018-05-16T16:42:45.079Z,12.17
2018-05-16T16:45:20.090Z,13.50
2018-05-16T16:47:55.430Z,13.50
2018-05-16T16:50:31.139Z,13.55
2018-05-16T16:53:05.787Z,14.50
2018-05-16T16:55:41.089Z,15.52
2018-05-16T16:58:16.378Z,14.38
2018-05-16T17:00:51.236Z,14.93
2018-05-16T17:03:26.394Z,16.10
2018-05-16T17:06:01.250Z,15.57
2018-05-16T17:08:36.265Z,11.43
2018-05-16T17:11:11.585Z,12.87
2018-05-16T17:13:46.418Z,13.70
2018-05-16T17:16:21.482Z,13.40
2018-05-16T17:18:56.498Z,16.87
2018-05-16T17:21:31.522Z,13.13
2018-05-16T17:24:06.700Z,9.80
2018-05-16T17:26:41.665Z,13.77
2018-05-16T17:29:16.734Z,15.77
2018-05-16T17:31:51.682Z,17.80
2018-05-16T17:34:26.466Z,21.80
2018-05-16T17:37:02.126Z,11.20
2018-05-16T17:39:37.247Z,9.87
2018-05-16T17:42:11.962Z,12.80
2018-05-16T17:44:47.053Z,11.13
2018-05-16T17:47:22.371Z,13.50
2018-05-16T17:49:57.385Z,14.63
2018-05-16T17:52:32.681Z,12.50
2018-05-16T17:55:07.598Z,13.73
2018-05-16T17:57:42.830Z,11.83
2018-05-16T18:00:17.607Z,15.75
2018-05-16T18:02:52.807Z,11.67
2018-05-16T18:05:28.292Z,13.95
2018-05-16T18:08:03.218Z,18.45
2018-05-16T18:10:38.324Z,12.97
2018-05-16T18:26:53.736Z,8.07
2018-05-16T18:29:29.193Z,9.73
2018-05-16T18:32:04.008Z,14.10
2018-05-16T18:34:39.018Z,11.80
2018-05-16T18:37:13.745Z,10.63
2018-05-16T18:39:48.538Z,12.50
2018-05-16T18:42:23.778Z,14.73
2018-05-16T18:44:58.840Z,18.60
2018-05-16T18:47:33.689Z,12.10
2018-05-16T18:50:08.731Z,12.53
2018-05-16T18:52:43.595Z,18.93
2018-05-16T18:55:18.661Z,16.97
2018-05-16T18:57:53.674Z,10.70
2018-05-16T19:00:28.331Z,8.57
2018-05-16T19:03:03.279Z,9.53
2018-05-16T19:05:38.563Z,12.77
2018-05-16T19:08:13.674Z,7.70
2018-05-16T19:10:48.518Z,10.93
2018-05-16T19:13:23.865Z,12.60
2018-05-16T19:15:58.770Z,16.67
2018-05-16T19:18:33.709Z,13.57
2018-05-16T19:21:08.842Z,19.70
2018-05-16T19:23:43.954Z,12.73
2018-05-16T19:26:18.919Z,17.60
2018-05-16T19:28:53.831Z,15.13
2018-05-16T19:31:28.980Z,11.60
2018-05-16T19:34:03.903Z,12.03
2018-05-16T19:36:38.878Z,15.40
2018-05-16T19:39:14.018Z,8.13
2018-05-16T19:41:49.035Z,10.23
2018-05-16T19:44:24.447Z,18.70
2018-05-16T19:46:59.194Z,13.10
2018-05-16T19:49:34.578Z,12.13
2018-05-16T19:52:09.730Z,11.50
2018-05-16T19:54:44.695Z,10.90
2018-05-16T19:57:19.118Z,12.03
2018-05-16T19:59:54.082Z,13.50
2018-05-16T20:02:29.274Z,10.40
2018-05-16T20:05:04.287Z,14.13
2018-05-16T20:07:39.546Z,10.47
2018-05-16T20:10:14.685Z,16.33
2018-05-16T20:12:49.776Z,10.63
2018-05-16T20:15:24.878Z,11.50
2018-05-16T20:17:59.693Z,10.47
2018-05-16T20:20:34.666Z,10.87
2018-05-16T20:23:09.086Z,10.43
2018-05-16T20:25:44.611Z,11.57
2018-05-16T20:28:19.886Z,11.63
2018-05-16T20:30:54.844Z,12.23
2018-05-16T20:33:30.055Z,11.00
2018-05-16T20:36:05.053Z,21.27
2018-05-16T20:38:40.198Z,16.43
2018-05-16T20:41:15.622Z,13.50
2018-05-16T20:43:50.750Z,14.03
2018-05-16T20:46:26.195Z,10.87
2018-05-16T20:49:01.041Z,12.37
2018-05-16T20:51:36.844Z,13.53
2018-05-16T20:54:12.189Z,12.93
2018-05-16T20:56:47.848Z,13.90
2018-05-16T20:59:23.850Z,12.48
2018-05-16T21:01:59.297Z,9.53
2018-05-16T21:04:33.969Z,15.33
2018-05-16T21:07:08.675Z,15.40
2018-05-16T21:09:44.048Z,18.43
2018-05-16T21:12:19.113Z,9.87
2018-05-16T21:14:53.898Z,10.90
2018-05-16T21:17:28.798Z,16.63
2018-05-16T21:20:03.697Z,13.63
2018-05-16T21:22:39.035Z,19.30
2018-05-16T21:25:14.059Z,15.97
2018-05-16T21:27:49.174Z,13.77
2018-05-16T21:30:24.379Z,18.20
2018-05-16T21:32:59.743Z,20.20
2018-05-16T21:35:34.851Z,18.13
2018-05-16T21:38:09.774Z,13.10
2018-05-16T21:40:44.772Z,12.13
2018-05-16T21:43:20.147Z,9.48
2018-05-16T21:45:54.961Z,22.57
2018-05-16T21:48:30.005Z,17.33
2018-05-16T21:51:05.224Z,11.90
2018-05-16T21:53:40.451Z,12.80
2018-05-16T21:56:15.986Z,14.97
2018-05-16T21:58:51.050Z,18.10
2018-05-16T22:01:26.954Z,19.55
2018-05-16T22:04:02.340Z,19.07
2018-05-16T22:06:36.968Z,17.33
2018-05-16T22:09:12.319Z,9.60
2018-05-16T22:11:46.879Z,16.80
2018-05-16T22:14:21.961Z,18.57
2018-05-16T22:16:56.903Z,11.63
2018-05-16T22:19:32.011Z,21.23
2018-05-16T22:22:07.230Z,11.57
2018-05-16T22:24:42.137Z,12.53
2018-05-16T22:27:17.243Z,13.97
2018-05-16T22:29:53.062Z,7.87
2018-05-16T22:32:33.434Z,12.45
2018-05-16T22:35:14.434Z,16.60
2018-05-16T22:37:54.414Z,13.23
2018-05-16T22:40:34.518Z,18.23
2018-05-16T22:43:09.246Z,16.63
2018-05-16T22:45:45.593Z,12.63
2018-05-16T22:48:21.253Z,19.47
2018-05-16T22:50:56.106Z,16.60
2018-05-16T22:53:31.572Z,13.27
2018-05-16T22:56:06.526Z,19.77
2018-05-16T22:58:41.449Z,13.40
2018-05-16T23:01:16.558Z,16.23
2018-05-16T23:03:52.086Z,11.90
2018-05-16T23:06:27.318Z,21.40
2018-05-16T23:09:02.299Z,16.57
2018-05-16T23:11:37.646Z,19.17
2018-05-16T23:14:12.625Z,15.57
2018-05-16T23:16:48.063Z,16.93
2018-05-16T23:19:23.242Z,11.88
2018-05-16T23:21:58.502Z,15.93
2018-05-16T23:24:33.345Z,13.03
2018-05-16T23:27:08.474Z,12.33
2018-05-16T23:29:43.578Z,14.90
2018-05-16T23:32:18.495Z,16.37
2018-05-16T23:34:53.286Z,16.33
2018-05-16T23:37:28.785Z,16.30
2018-05-16T23:40:03.530Z,20.20
2018-05-16T23:42:38.702Z,16.20
2018-05-16T23:45:13.625Z,20.57
2018-05-16T23:47:48.505Z,10.07
2018-05-16T23:50:23.770Z,18.67
2018-05-16T23:52:58.619Z,24.87
2018-05-16T23:55:33.290Z,28.33
2018-05-16T23:58:08.599Z,20.97
